Time;durP1;ratioP1;P1;durP2;ratioP2;P2;SDS_P1;SDS_P2;PMS_P1;PMS_P2;Temp;Humidity;BMP_temperature;BMP_pressure;BME280_temperature;BME280_humidity;BME280_pressure;Samples;Min_cycle;Max_cycle;Signal;HPM_P1;HPM_P2
2022/04/16 00:00:30;;;;;;;5.53;4.57;;;;;;;2.41;72.69;102427.56;5072015;28;20267;-67
2022/04/16 00:02:59;;;;;;;4.53;3.45;;;;;;;2.46;72.08;102441.34;5070992;28;20461;-67
2022/04/16 00:05:28;;;;;;;4.47;3.50;;;;;;;2.49;71.30;102435.94;5070716;28;20033;-69
2022/04/16 00:08:08;;;;;;;4.78;2.95;;;;;;;2.50;71.47;102436.78;5072118;28;20267;-68
2022/04/16 00:10:45;;;;;;;3.53;3.13;;;;;;;2.51;71.22;102437.66;5072347;28;20082;-66
2022/04/16 00:13:11;;;;;;;3.53;3.23;;;;;;;2.50;70.90;102442.06;5070429;28;20274;-67
2022/04/16 00:15:40;;;;;;;2.97;2.67;;;;;;;2.51;70.73;102448.16;5072029;28;20354;-68
2022/04/16 00:18:07;;;;;;;4.10;3.17;;;;;;;2.51;70.90;102445.53;5071947;28;20048;-68
2022/04/16 00:20:34;;;;;;;4.93;3.13;;;;;;;2.45;70.42;102444.91;5054024;28;20740;-69
2022/04/16 00:23:04;;;;;;;5.53;3.40;;;;;;;2.31;70.40;102430.66;5054259;28;20828;-69
2022/04/16 00:25:32;;;;;;;3.28;2.95;;;;;;;2.38;70.77;102440.84;5073601;28;20734;-69
2022/04/16 00:27:59;;;;;;;4.95;2.92;;;;;;;2.41;70.12;102442.47;5074868;28;20036;-68
2022/04/16 00:30:25;;;;;;;4.37;3.07;;;;;;;2.30;70.13;102428.94;5074694;28;20090;-67
2022/04/16 00:32:55;;;;;;;3.93;2.70;;;;;;;2.40;69.90;102452.16;5075686;28;20279;-67
2022/04/16 00:35:22;;;;;;;3.07;2.53;;;;;;;2.32;69.54;102451.66;5074817;28;20068;-68
2022/04/16 00:37:48;;;;;;;5.27;2.60;;;;;;;2.35;69.37;102453.28;5074595;28;20352;-68
2022/04/16 00:40:13;;;;;;;2.90;2.57;;;;;;;2.34;69.39;102462.94;5074472;28;20278;-68
2022/04/16 00:42:45;;;;;;;2.20;2.00;;;;;;;2.23;68.15;102443.28;5074341;28;20048;-68
2022/04/16 00:45:12;;;;;;;6.50;2.13;;;;;;;2.28;68.90;102459.72;5074276;28;20406;-68
2022/04/16 00:47:38;;;;;;;4.03;2.70;;;;;;;2.22;69.01;102455.59;5075188;28;20263;-68
2022/04/16 00:50:05;;;;;;;3.53;2.50;;;;;;;2.15;68.78;102472.56;5074542;28;20679;-68
2022/04/16 00:52:31;;;;;;;4.97;3.73;;;;;;;2.06;68.85;102465.94;5074286;28;20075;-67
2022/04/16 00:54:57;;;;;;;3.50;3.20;;;;;;;1.96;69.15;102482.97;5074244;28;20286;-70
2022/04/16 00:57:25;;;;;;;6.43;3.73;;;;;;;1.85;69.91;102470.31;5073838;28;20044;-69
2022/04/16 00:59:51;;;;;;;4.18;2.85;;;;;;;1.80;69.65;102477.53;5073957;28;20480;-69
2022/04/16 01:02:17;;;;;;;3.47;2.50;;;;;;;1.74;70.02;102479.56;5074644;28;20501;-68
2022/04/16 01:04:43;;;;;;;2.83;2.53;;;;;;;1.68;70.17;102483.28;5074783;28;20274;-67
2022/04/16 01:07:09;;;;;;;3.30;3.00;;;;;;;1.58;70.46;102486.38;5074222;28;20036;-69
2022/04/16 01:09:35;;;;;;;3.77;3.07;;;;;;;1.54;70.87;102481.25;5074622;28;20645;-68
2022/04/16 01:12:01;;;;;;;3.57;3.07;;;;;;;1.47;70.96;102484.19;5076910;28;20266;-67
2022/04/16 01:14:29;;;;;;;2.20;1.97;;;;;;;1.47;70.96;102500.78;5075518;28;20040;-68
2022/04/16 01:16:57;;;;;;;4.87;2.73;;;;;;;1.42;71.10;102488.75;5075310;28;20287;-68
2022/04/16 01:19:25;;;;;;;3.97;2.47;;;;;;;1.36;71.32;102487.22;5077030;28;20282;-68
2022/04/16 01:21:50;;;;;;;2.90;2.10;;;;;;;1.37;71.44;102501.19;5077112;28;20275;-68
2022/04/16 01:24:16;;;;;;;4.70;2.20;;;;;;;1.27;71.82;102508.59;5074167;28;20287;-69
2022/04/16 01:26:42;;;;;;;3.70;2.20;;;;;;;1.29;71.16;102512.00;5073465;28;20396;-68
2022/04/16 01:29:08;;;;;;;4.20;2.23;;;;;;;1.23;71.39;102509.63;5073505;28;20043;-68
2022/04/16 01:31:34;;;;;;;7.10;2.17;;;;;;;1.22;71.41;102516.66;5073483;28;20040;-67
2022/04/16 01:34:00;;;;;;;4.87;2.73;;;;;;;1.15;71.70;102511.69;5073694;28;20777;-67
2022/04/16 01:36:29;;;;;;;3.57;3.23;;;;;;;1.15;70.88;102530.91;5073441;28;20040;-68
2022/04/16 01:38:55;;;;;;;;;;;;;;;1.14;71.42;102534.44;5073671;28;20263;-67
2022/04/16 01:41:21;;;;;;;4.07;2.23;;;;;;;1.03;71.58;102531.38;5073265;28;20008;-69
2022/04/16 01:43:46;;;;;;;4.07;2.57;;;;;;;1.04;72.05;102533.09;5073724;28;20086;-67
2022/04/16 01:46:12;;;;;;;4.63;2.23;;;;;;;0.91;72.03;102524.84;5071992;28;20037;-68
2022/04/16 01:48:37;;;;;;;3.33;2.53;;;;;;;1.00;72.31;102541.16;5073325;28;20492;-69
2022/04/16 01:51:05;;;;;;;4.73;3.00;;;;;;;0.94;71.83;102534.38;5073229;28;20063;-68
2022/04/16 01:53:30;;;;;;;2.83;2.40;;;;;;;0.96;72.21;102548.28;5073055;28;20032;-67
2022/04/16 01:55:56;;;;;;;2.83;2.37;;;;;;;0.92;72.08;102537.06;5073122;28;20271;-67
2022/04/16 01:58:21;;;;;;;5.53;2.57;;;;;;;0.92;72.42;102539.66;5073236;28;20495;-67
2022/04/16 02:00:47;;;;;;;4.73;2.57;;;;;;;0.97;71.85;102541.25;5073192;28;20495;-68
2022/04/16 02:03:14;;;;;;;3.10;2.33;;;;;;;1.00;71.46;102533.28;5073481;28;20412;-67
2022/04/16 02:05:40;;;;;;;4.90;2.10;;;;;;;1.06;71.45;102552.25;5073008;28;20665;-68
2022/04/16 02:08:07;;;;;;;2.30;2.10;;;;;;;0.99;71.67;102545.53;5072762;28;20774;-67
2022/04/16 02:10:35;;;;;;;3.63;2.23;;;;;;;0.96;71.83;102550.03;5072982;28;20706;-68
2022/04/16 02:13:01;;;;;;;3.00;2.20;;;;;;;0.75;71.83;102546.44;5073121;28;20271;-67
2022/04/16 02:15:27;;;;;;;3.60;3.07;;;;;;;0.77;71.81;102561.19;5072942;28;20637;-68
2022/04/16 02:17:56;;;;;;;2.60;2.40;;;;;;;0.73;72.13;102561.38;5072670;28;20059;-68
2022/04/16 02:20:46;;;;;;;4.40;2.10;;;;;;;0.68;72.85;102569.41;5072895;28;20793;-67
2022/04/16 02:23:12;;;;;;;7.97;2.77;;;;;;;0.58;73.15;102566.28;5072504;28;20271;-67
2022/04/16 02:25:41;;;;;;;3.73;2.43;;;;;;;0.59;73.12;102572.38;5072254;28;20442;-68
2022/04/16 02:28:07;;;;;;;2.90;2.20;;;;;;;0.53;72.65;102576.03;5072356;28;20802;-67
2022/04/16 02:30:32;;;;;;;3.67;2.33;;;;;;;0.48;73.56;102569.25;5072446;28;20363;-67
2022/04/16 02:32:58;;;;;;;3.67;2.47;;;;;;;0.44;73.54;102567.66;5072127;28;20042;-68
2022/04/16 02:35:24;;;;;;;3.10;2.30;;;;;;;0.41;73.21;102573.00;5072301;28;20032;-67
2022/04/16 02:37:50;;;;;;;2.50;2.30;;;;;;;0.42;73.59;102579.97;5072254;28;20031;-68
2022/04/16 02:40:16;;;;;;;5.70;3.03;;;;;;;0.37;73.16;102571.41;5071761;28;20039;-69
2022/04/16 02:42:43;;;;;;;6.23;2.93;;;;;;;0.28;73.62;102559.44;5072564;28;20328;-67
2022/04/16 02:47:57;;;;;;;2.50;2.30;;;;;;;0.35;73.40;102583.72;5071525;28;20286;-68
2022/04/16 02:50:25;;;;;;;3.60;2.53;;;;;;;0.35;73.59;102592.44;5072439;28;20267;-68
2022/04/16 02:52:55;;;;;;;2.63;2.28;;;;;;;0.26;73.09;102569.13;5072208;28;20312;-67
2022/04/16 02:55:24;;;;;;;6.20;2.60;;;;;;;0.19;73.18;102563.25;5072039;28;20128;-67
2022/04/16 02:57:50;;;;;;;2.47;2.23;;;;;;;0.38;72.48;102599.31;5072069;28;20270;-66
2022/04/16 03:00:17;;;;;;;3.53;2.60;;;;;;;0.37;72.71;102602.84;5071938;28;20604;-67
2022/04/16 03:02:42;;;;;;;2.93;2.17;;;;;;;0.35;73.13;102608.16;5072047;28;20672;-67
2022/04/16 03:05:09;;;;;;;6.63;2.90;;;;;;;0.24;73.08;102595.38;5072204;28;20328;-66
2022/04/16 03:07:37;;;;;;;4.23;3.40;;;;;;;0.29;72.50;102603.97;5071713;28;20499;-66
2022/04/16 03:10:05;;;;;;;2.47;2.25;;;;;;;0.32;72.84;102604.78;5053976;28;20761;-67
2022/04/16 03:13:03;;;;;;;3.77;2.40;;;;;;;0.40;72.68;102618.47;5071693;28;20442;-69
2022/04/16 03:18:12;;;;;;;3.20;2.20;;;;;;;0.35;72.67;102609.91;5071670;28;20057;-69
2022/04/16 03:20:40;;;;;;;2.63;2.43;;;;;;;0.45;72.78;102627.03;5072203;28;20310;-69
2022/04/16 03:23:06;;;;;;;2.53;2.23;;;;;;;0.37;72.98;102618.59;5071864;28;20263;-66
2022/04/16 03:25:32;;;;;;;3.87;2.60;;;;;;;0.41;72.87;102628.91;5071560;28;20607;-66
2022/04/16 03:27:58;;;;;;;4.47;2.70;;;;;;;0.39;73.49;102627.25;5071849;28;20570;-66
2022/04/16 03:30:25;;;;;;;3.60;2.50;;;;;;;0.40;73.35;102635.06;5071901;28;20269;-66
2022/04/16 03:32:51;;;;;;;5.27;2.47;;;;;;;0.39;73.47;102627.25;5071734;28;20111;-69
2022/04/16 03:35:21;;;;;;;4.50;2.77;;;;;;;0.41;73.22;102635.91;5073464;28;20274;-68
2022/04/16 03:37:47;;;;;;;4.40;2.57;;;;;;;0.46;73.59;102639.22;5072676;28;20317;-68
2022/04/16 03:40:13;;;;;;;6.83;2.53;;;;;;;0.49;73.35;102645.22;5072170;28;20259;-68
2022/04/16 03:42:46;;;;;;;4.87;2.67;;;;;;;0.51;72.93;102645.16;5072129;28;20036;-66
2022/04/16 03:45:35;;;;;;;3.47;2.80;;;;;;;0.53;72.63;102646.81;5070733;28;20040;-67
2022/04/16 03:48:04;;;;;;;5.00;2.70;;;;;;;0.65;72.66;102656.06;5061656;28;20295;-67
2022/04/16 03:50:30;;;;;;;2.88;2.40;;;;;;;0.95;71.75;102648.03;5072465;28;20278;-67
2022/04/16 03:52:56;;;;;;;6.33;2.70;;;;;;;1.36;69.96;102652.59;5071736;28;20048;-68
2022/04/16 04:00:58;;;;;;;3.27;2.40;;;;;;;0.94;70.35;102657.66;5074441;28;20305;-66
2022/04/16 04:03:24;;;;;;;4.80;2.33;;;;;;;0.70;71.44;102672.47;5075192;28;20294;-67
2022/04/16 04:05:53;;;;;;;4.23;2.57;;;;;;;0.50;71.34;102667.06;5075676;28;20771;-67
2022/04/16 04:08:20;;;;;;;5.18;2.90;;;;;;;0.49;71.88;102673.19;5073950;28;20363;-69
2022/04/16 04:10:46;;;;;;;5.60;2.33;;;;;;;0.46;72.07;102678.56;5073793;28;20040;-67
2022/04/16 04:13:13;;;;;;;5.93;2.70;;;;;;;0.43;72.64;102673.41;5074978;28;20267;-67
2022/04/16 04:15:39;;;;;;;4.03;2.33;;;;;;;0.40;72.12;102670.91;5075263;28;20271;-66
2022/04/16 04:18:18;;;;;;;5.07;2.27;;;;;;;0.43;71.81;102683.91;5074963;28;20289;-69
2022/04/16 04:20:49;;;;;;;5.37;2.33;;;;;;;0.37;72.33;102699.84;5076058;28;20310;-66
2022/04/16 04:23:19;;;;;;;4.37;2.10;;;;;;;0.36;72.61;102696.34;5075525;28;20337;-67
2022/04/16 04:25:49;;;;;;;2.87;2.03;;;;;;;0.30;72.40;102694.78;5075688;28;20262;-67
2022/04/16 04:28:22;;;;;;;2.13;1.97;;;;;;;0.30;72.46;102700.03;5073886;28;20310;-67
2022/04/16 04:30:48;;;;;;;2.57;2.10;;;;;;;0.30;72.39;102702.66;5074022;28;20279;-69
2022/04/16 04:33:14;;;;;;;1.70;1.60;;;;;;;0.31;72.04;102698.28;5075885;28;20349;-68
2022/04/16 04:35:40;;;;;;;3.07;2.33;;;;;;;0.27;72.36;102692.25;5074814;28;20359;-68
2022/04/16 04:38:09;;;;;;;3.60;2.10;;;;;;;0.34;71.76;102705.19;5075484;28;20726;-67
2022/04/16 04:40:35;;;;;;;3.70;2.67;;;;;;;0.33;71.92;102708.72;5074787;28;20028;-66
2022/04/16 04:43:01;;;;;;;2.70;1.67;;;;;;;0.37;71.33;102712.94;5073854;28;20328;-67
2022/04/16 04:45:27;;;;;;;3.47;2.37;;;;;;;0.39;71.35;102706.72;5075003;28;20127;-67
2022/04/16 04:47:54;;;;;;;3.23;2.73;;;;;;;0.42;71.12;102703.16;5074009;28;20032;-68
2022/04/16 04:50:19;;;;;;;5.67;2.40;;;;;;;0.42;70.83;102711.88;5074150;28;20339;-67
2022/04/16 04:52:46;;;;;;;4.80;2.60;;;;;;;0.42;71.11;102709.25;5074671;28;20350;-67
2022/04/16 04:55:13;;;;;;;5.23;2.47;;;;;;;0.43;70.47;102708.34;5075066;28;20044;-68
2022/04/16 04:57:40;;;;;;;2.67;2.30;;;;;;;0.44;69.79;102704.81;5074176;28;20271;-67
2022/04/16 05:00:07;;;;;;;2.13;1.93;;;;;;;0.52;69.54;102715.03;5074797;28;20271;-68
2022/04/16 05:02:41;;;;;;;4.83;2.20;;;;;;;0.58;69.07;102704.38;5057444;28;20657;-68
2022/04/16 05:05:08;;;;;;;1.90;1.80;;;;;;;0.66;68.69;102720.69;5074833;28;20274;-67
2022/04/16 05:07:37;;;;;;;2.27;2.03;;;;;;;0.73;68.62;102731.84;5074572;28;20702;-67
2022/04/16 05:10:07;;;;;;;2.55;1.90;;;;;;;0.73;68.15;102730.06;5073542;28;20650;-67
2022/04/16 05:12:33;;;;;;;4.20;1.77;;;;;;;0.72;68.59;102715.25;5075215;28;20186;-66
2022/04/16 05:15:04;;;;;;;3.53;2.90;;;;;;;0.72;67.52;102725.75;5057522;28;20395;-68
2022/04/16 05:17:37;;;;;;;1.83;1.73;;;;;;;0.78;67.42;102727.28;5075064;28;20292;-67
2022/04/16 05:20:09;;;;;;;4.23;2.20;;;;;;;0.79;67.71;102726.38;5040888;28;20684;-68
2022/04/16 05:22:40;;;;;;;3.23;1.83;;;;;;;0.80;67.96;102734.19;5057352;28;20275;-68
2022/04/16 05:25:07;;;;;;;3.20;2.10;;;;;;;0.81;67.44;102728.03;5074131;28;20812;-68
2022/04/16 05:27:34;;;;;;;2.77;2.00;;;;;;;0.87;67.34;102734.88;5074520;28;20333;-67
2022/04/16 05:30:06;;;;;;;6.03;3.00;;;;;;;0.93;67.11;102732.03;5056702;28;20639;-68
2022/04/16 05:32:42;;;;;;;3.37;1.93;;;;;;;0.96;67.08;102741.56;5073300;28;20566;-68
2022/04/16 05:35:10;;;;;;;2.20;2.00;;;;;;;0.95;66.78;102722.34;5056432;28;20507;-67
2022/04/16 05:37:36;;;;;;;2.30;1.90;;;;;;;1.02;66.60;102736.09;5073813;28;20278;-68
2022/04/16 05:40:06;;;;;;;3.87;2.00;;;;;;;1.09;66.98;102737.59;5073586;28;20267;-68
2022/04/16 05:42:32;;;;;;;3.20;1.77;;;;;;;1.10;66.52;102724.41;5073476;28;20278;-69
2022/04/16 05:45:04;;;;;;;3.63;2.30;;;;;;;1.22;65.79;102738.88;5073297;28;20849;-68
2022/04/16 05:47:30;;;;;;;3.10;2.07;;;;;;;1.24;65.87;102745.78;5073295;28;20127;-68
2022/04/16 05:49:55;;;;;;;3.47;1.93;;;;;;;1.26;65.47;102740.50;5073438;28;20369;-68
2022/04/16 05:52:22;;;;;;;2.10;1.80;;;;;;;1.29;65.28;102745.63;5073689;28;20032;-68
2022/04/16 05:54:48;;;;;;;2.53;1.70;;;;;;;1.25;65.15;102738.78;5071687;28;20029;-68
2022/04/16 05:57:14;;;;;;;5.30;2.43;;;;;;;1.28;65.35;102736.03;5072892;28;20684;-67
2022/04/16 05:59:44;;;;;;;2.30;2.10;;;;;;;1.41;65.39;102745.19;5072565;28;20066;-68
2022/04/16 06:02:13;;;;;;;9.77;3.93;;;;;;;1.59;64.85;102740.19;5070690;28;20263;-69
2022/04/16 06:04:38;;;;;;;3.13;2.20;;;;;;;1.67;63.40;102769.63;5073751;28;20808;-75
2022/04/16 06:07:04;;;;;;;5.57;2.23;;;;;;;1.61;62.65;102759.38;5075084;28;20035;-68
2022/04/16 06:09:31;;;;;;;4.03;2.20;;;;;;;1.49;62.68;102751.03;5072880;28;20437;-69
2022/04/16 06:12:04;;;;;;;3.30;2.33;;;;;;;1.48;63.25;102749.31;5072382;28;20060;-70
2022/04/16 06:14:33;;;;;;;4.03;2.43;;;;;;;1.48;63.54;102751.94;5046029;28;20283;-69
2022/04/16 06:17:00;;;;;;;;;;;;;;;1.57;63.41;102755.13;5054357;28;20288;-67
2022/04/16 06:19:51;;;;;;;4.97;2.00;;;;;;;1.63;63.44;102757.53;5066420;28;20287;-68
2022/04/16 06:22:17;;;;;;;2.43;2.03;;;;;;;1.65;62.65;102746.06;5073137;28;20282;-69
2022/04/16 06:24:43;;;;;;;2.50;2.00;;;;;;;1.80;62.16;102756.00;5072414;28;20407;-70
2022/04/16 06:27:09;;;;;;;4.80;2.53;;;;;;;1.87;62.22;102751.38;5072797;28;20853;-70
2022/04/16 06:29:34;;;;;;;5.30;2.33;;;;;;;1.92;61.97;102759.06;5072724;28;20040;-69
2022/04/16 06:32:00;;;;;;;4.13;2.17;;;;;;;1.88;62.98;102753.09;5061828;28;20283;-71
2022/04/16 06:34:28;;;;;;;6.50;2.37;;;;;;;1.90;62.19;102759.13;5051718;28;20041;-78
2022/04/16 06:36:54;;;;;;;12.35;2.15;;;;;;;1.90;62.10;102771.41;5055130;28;20040;-69
2022/04/16 06:39:20;;;;;;;4.17;2.07;;;;;;;1.79;63.19;102753.44;5053201;28;20033;-71
2022/04/16 06:41:45;;;;;;;3.27;1.77;;;;;;;1.87;62.52;102767.13;5063679;28;20029;-74
2022/04/16 06:44:14;;;;;;;5.00;2.13;;;;;;;1.90;62.51;102782.78;5072181;28;20511;-75
2022/04/16 06:46:39;;;;;;;5.47;2.92;;;;;;;1.87;62.75;102759.25;5071157;28;20118;-71
2022/04/16 06:49:05;;;;;;;2.43;2.13;;;;;;;2.01;62.54;102777.97;5071762;28;20629;-74
2022/04/16 06:51:30;;;;;;;3.90;2.20;;;;;;;2.04;63.05;102772.63;5075316;28;20113;-72
2022/04/16 06:54:00;;;;;;;2.27;1.97;;;;;;;1.96;62.25;102781.69;5070017;28;20036;-77
2022/04/16 06:56:25;;;;;;;3.57;2.00;;;;;;;1.92;61.97;102773.06;5072143;28;20037;-72
2022/04/16 06:58:51;;;;;;;3.30;1.90;;;;;;;1.96;63.14;102771.19;5071650;28;20756;-69
2022/04/16 07:01:16;;;;;;;3.17;1.93;;;;;;;2.07;62.66;102775.13;5071796;28;20032;-70
2022/04/16 07:03:42;;;;;;;3.43;1.77;;;;;;;2.19;62.83;102779.03;5072209;28;20032;-73
2022/04/16 07:06:08;;;;;;;4.67;2.10;;;;;;;1.86;62.67;102726.00;5073535;28;20032;-68
2022/04/16 07:08:33;;;;;;;2.20;1.80;;;;;;;2.24;62.75;102784.97;5071816;28;20129;-70
2022/04/16 07:10:59;;;;;;;2.70;1.80;;;;;;;2.27;62.63;102776.13;5070245;28;20033;-66
2022/04/16 07:13:24;;;;;;;4.90;2.00;;;;;;;2.31;62.05;102778.56;5071099;28;20068;-68
2022/04/16 07:15:50;;;;;;;6.17;1.93;;;;;;;2.32;61.66;102782.94;5070220;28;20036;-69
2022/04/16 07:18:17;;;;;;;3.30;1.90;;;;;;;2.37;61.55;102774.84;5070035;28;20058;-70
2022/04/16 07:20:45;;;;;;;3.67;2.00;;;;;;;2.41;61.32;102766.78;5072108;28;20036;-71
2022/04/16 07:23:10;;;;;;;6.03;2.05;;;;;;;2.54;59.84;102788.16;5072473;28;20626;-72
2022/04/16 07:25:36;;;;;;;6.23;2.20;;;;;;;2.58;59.20;102788.91;5071416;28;20032;-69
2022/04/16 07:28:02;;;;;;;3.90;2.10;;;;;;;2.57;59.00;102779.28;5071704;28;20036;-70
2022/04/16 07:30:27;;;;;;;3.63;1.73;;;;;;;2.53;58.48;102778.56;5070345;28;20029;-72
2022/04/16 07:32:58;;;;;;;2.00;1.80;;;;;;;2.54;58.88;102788.16;5069815;28;20037;-70
2022/04/16 07:35:26;;;;;;;15.43;2.80;;;;;;;2.54;59.33;102763.66;5074710;28;20662;-70
2022/04/16 07:37:57;;;;;;;7.38;2.17;;;;;;;2.73;59.17;102785.66;5078628;28;20020;-72
2022/04/16 07:40:25;;;;;;;4.70;2.20;;;;;;;2.77;59.20;102779.34;5068036;28;20557;-72
2022/04/16 07:42:51;;;;;;;3.85;1.88;;;;;;;2.89;58.42;102783.25;5074934;28;20262;-68
2022/04/16 07:45:16;;;;;;;2.97;2.20;;;;;;;2.97;58.33;102787.28;5075526;28;20202;-69
2022/04/16 07:47:42;;;;;;;10.10;2.63;;;;;;;2.94;58.14;102773.41;5075691;28;20422;-70
2022/04/16 07:50:08;;;;;;;7.37;2.00;;;;;;;3.17;57.74;102793.47;5073968;28;20082;-69
2022/04/16 07:52:34;;;;;;;6.70;1.60;;;;;;;3.25;57.02;102788.75;5072510;28;20037;-70
2022/04/16 07:55:00;;;;;;;6.10;2.10;;;;;;;3.24;56.85;102787.91;5064599;28;20344;-69
2022/04/16 07:57:25;;;;;;;5.80;1.70;;;;;;;3.24;56.88;102800.22;5055554;28;20041;-71
2022/04/16 07:59:52;;;;;;;4.40;2.13;;;;;;;3.27;57.37;102798.28;5055550;28;20484;-69
2022/04/16 08:02:18;;;;;;;7.50;1.97;;;;;;;3.30;56.31;102794.66;5055709;28;20060;-69
2022/04/16 08:04:43;;;;;;;3.00;2.00;;;;;;;3.27;56.32;102797.44;5055366;28;20350;-71
2022/04/16 08:07:09;;;;;;;4.77;1.70;;;;;;;3.19;56.83;102795.16;5055882;28;20471;-71
2022/04/16 08:09:35;;;;;;;5.13;1.87;;;;;;;3.26;56.24;102801.84;5055533;28;20040;-70
2022/04/16 08:12:00;;;;;;;4.10;1.83;;;;;;;3.18;56.11;102772.38;5055403;28;20447;-70
2022/04/16 08:14:26;;;;;;;3.43;2.20;;;;;;;3.36;56.05;102776.81;5059449;28;20070;-70
2022/04/16 08:16:52;;;;;;;4.73;1.93;;;;;;;3.47;55.21;102793.91;5057187;28;20060;-69
2022/04/16 08:19:20;;;;;;;7.22;2.10;;;;;;;3.54;54.88;102798.03;5074464;28;20314;-72
2022/04/16 08:21:46;;;;;;;5.10;1.80;;;;;;;3.53;55.63;102791.03;5075933;28;20067;-69
2022/04/16 08:24:22;;;;;;;3.07;2.60;;;;;;;3.55;55.19;102770.75;5075273;28;20131;-70
2022/04/16 08:26:48;;;;;;;4.63;2.93;;;;;;;3.71;55.10;102808.66;5075120;28;20415;-69
2022/04/16 08:29:14;;;;;;;8.97;2.77;;;;;;;3.67;54.93;102793.91;5075426;28;20324;-67
2022/04/16 08:31:39;;;;;;;3.23;1.80;;;;;;;3.57;54.34;102779.44;5076440;28;20271;-69
2022/04/16 08:34:05;;;;;;;4.63;2.13;;;;;;;3.69;53.79;102794.69;5075508;28;20086;-68
2022/04/16 08:36:30;;;;;;;2.97;2.03;;;;;;;3.70;54.06;102788.50;5075634;28;20047;-68
2022/04/16 08:38:56;;;;;;;6.50;1.97;;;;;;;3.72;54.30;102805.09;5074926;28;20040;-69
2022/04/16 08:41:25;;;;;;;5.40;2.37;;;;;;;3.75;54.74;102804.94;5074942;28;20036;-71
2022/04/16 08:43:53;;;;;;;4.37;1.93;;;;;;;3.77;53.65;102803.13;5074769;28;20530;-69
2022/04/16 08:46:19;;;;;;;6.00;2.03;;;;;;;3.84;53.55;102808.97;5074715;28;20652;-70
2022/04/16 08:48:44;;;;;;;3.50;1.77;;;;;;;3.94;53.42;102810.25;5075083;28;20409;-70
2022/04/16 08:51:11;;;;;;;5.70;1.70;;;;;;;3.94;53.19;102816.38;5074981;28;20420;-68
2022/04/16 08:53:37;;;;;;;4.43;2.27;;;;;;;3.91;53.34;102819.16;5074233;28;20123;-71
2022/04/16 08:56:03;;;;;;;8.33;3.20;;;;;;;3.94;52.73;102813.75;5074360;28;20821;-70
2022/04/16 08:58:32;;;;;;;6.23;1.90;;;;;;;3.99;52.68;102801.22;5074107;28;20036;-71
2022/04/16 09:00:59;;;;;;;7.50;2.70;;;;;;;4.19;52.26;102799.44;5074287;28;20059;-72
2022/04/16 09:03:35;;;;;;;3.50;2.00;;;;;;;4.40;52.17;102824.81;5074296;28;20074;-71
2022/04/16 09:06:01;;;;;;;3.70;2.10;;;;;;;4.29;52.00;102805.97;5074929;28;20819;-72
2022/04/16 09:08:29;;;;;;;5.17;2.20;;;;;;;4.32;51.13;102811.97;5079383;28;21099;-70
2022/04/16 09:11:10;;;;;;;3.60;2.10;;;;;;;4.31;50.41;102804.13;5073096;28;20297;-72
2022/04/16 09:14:01;;;;;;;3.47;1.60;;;;;;;4.28;51.71;102820.09;5074233;28;20281;-76
2022/04/16 09:16:31;;;;;;;6.00;2.27;;;;;;;4.24;51.88;102819.41;5072314;28;20328;-73
2022/04/16 09:18:58;;;;;;;7.27;1.90;;;;;;;4.02;50.81;102772.06;5077279;28;20350;-79
2022/04/16 09:21:28;;;;;;;2.03;1.40;;;;;;;4.34;49.91;102812.78;5081528;28;20282;-73
2022/04/16 09:24:01;;;;;;;3.53;1.90;;;;;;;4.34;50.63;102807.50;5078871;28;20285;-72
2022/04/16 09:26:53;;;;;;;7.00;2.40;;;;;;;4.52;50.26;102833.94;5074333;28;20267;-73
2022/04/16 09:29:19;;;;;;;2.07;1.73;;;;;;;4.41;50.23;102815.97;5071558;28;20447;-73
2022/04/16 09:31:48;;;;;;;2.20;1.60;;;;;;;4.24;50.31;102822.03;5072429;28;20258;-71
2022/04/16 09:34:24;;;;;;;3.67;1.90;;;;;;;4.09;50.47;102824.53;5073763;28;20353;-69
2022/04/16 09:36:50;;;;;;;4.03;2.30;;;;;;;4.01;50.57;102828.34;5074324;28;20654;-69
2022/04/16 09:39:17;;;;;;;2.23;1.63;;;;;;;4.16;50.03;102815.41;5073600;28;20625;-67
2022/04/16 09:41:47;;;;;;;4.77;2.23;;;;;;;4.47;49.79;102822.75;5073357;28;20267;-68
2022/04/16 09:44:25;;;;;;;3.77;1.50;;;;;;;4.67;48.37;102812.09;5073277;28;20338;-67
2022/04/16 09:46:52;;;;;;;2.20;1.67;;;;;;;4.87;48.31;102829.56;5072888;28;20359;-66
2022/04/16 09:49:18;;;;;;;3.93;1.73;;;;;;;4.78;48.08;102820.34;5073155;28;20295;-67
2022/04/16 09:51:46;;;;;;;2.13;1.33;;;;;;;4.78;48.29;102816.84;5072718;28;20267;-67
2022/04/16 09:54:13;;;;;;;3.10;1.67;;;;;;;4.86;48.25;102818.16;5072793;28;20279;-69
2022/04/16 09:56:40;;;;;;;5.30;1.87;;;;;;;4.87;47.42;102829.56;5071202;28;20271;-67
2022/04/16 09:59:08;;;;;;;3.63;1.80;;;;;;;4.94;47.03;102825.72;5072430;28;20271;-67
2022/04/16 10:01:35;;;;;;;6.93;2.10;;;;;;;5.00;47.01;102833.34;5057332;28;20267;-69
2022/04/16 10:04:01;;;;;;;3.20;1.60;;;;;;;4.90;45.85;102821.50;5069511;28;20263;-65
2022/04/16 10:06:28;;;;;;;3.87;1.87;;;;;;;4.77;45.71;102823.06;5072705;28;20847;-67
2022/04/16 10:08:55;;;;;;;5.63;2.33;;;;;;;4.80;45.17;102822.91;5073147;28;20095;-66
2022/04/16 10:12:59;;;;;;;14.47;4.10;;;;;;;4.97;44.68;102822.94;5072761;28;20298;-68
2022/04/16 10:14:52;;;;;;;4.47;1.70;;;;;;;5.19;44.51;102823.53;5073428;28;20303;-68
2022/04/16 10:17:25;;;;;;;11.77;2.13;;;;;;;5.31;43.92;102829.16;5058822;28;20299;-67
2022/04/16 10:19:53;;;;;;;3.07;1.60;;;;;;;5.17;44.30;102822.78;5053022;28;20409;-74
2022/04/16 10:22:25;;;;;;;3.43;1.33;;;;;;;5.14;41.92;102830.00;5052583;28;20474;-65
2022/04/16 10:24:56;;;;;;;4.00;1.63;;;;;;;5.10;42.35;102831.94;5052720;28;20314;-70
2022/04/16 10:27:27;;;;;;;5.33;1.57;;;;;;;4.97;42.73;102831.72;5054621;28;20284;-73
2022/04/16 10:29:54;;;;;;;3.60;1.90;;;;;;;4.92;42.91;102811.75;5054115;28;20282;-70
2022/04/16 10:32:20;;;;;;;5.37;1.47;;;;;;;4.91;41.92;102833.78;5056957;28;20271;-77
2022/04/16 10:34:46;;;;;;;4.87;1.67;;;;;;;5.04;41.84;102832.25;5054228;28;20295;-72
2022/04/16 10:37:23;;;;;;;6.33;1.70;;;;;;;5.11;41.01;102823.09;5064285;28;20035;-69
2022/04/16 10:39:53;;;;;;;2.53;1.20;;;;;;;5.15;40.95;102829.91;5071547;28;20045;-66
2022/04/16 10:42:29;;;;;;;6.13;1.60;;;;;;;5.20;42.28;102843.78;5072235;28;20271;-67
2022/04/16 10:45:07;;;;;;;2.87;1.80;;;;;;;5.07;42.30;102808.31;5072188;28;20271;-63
2022/04/16 10:47:36;;;;;;;4.33;1.67;;;;;;;5.12;42.31;102823.94;5071940;28;20781;-63
2022/04/16 10:50:07;;;;;;;9.87;2.80;;;;;;;5.15;42.46;102824.63;5072098;28;20273;-64
2022/04/16 10:52:34;;;;;;;3.93;1.17;;;;;;;5.20;40.75;102843.78;5073138;28;20278;-65
2022/04/16 10:55:01;;;;;;;2.57;1.50;;;;;;;5.14;41.00;102820.28;5072305;28;20727;-66
2022/04/16 10:57:29;;;;;;;7.03;1.67;;;;;;;5.16;41.22;102831.63;5071296;28;20259;-67
2022/04/16 10:59:58;;;;;;;5.67;1.47;;;;;;;5.09;40.45;102822.31;5070833;28;20860;-66
2022/04/16 11:02:25;;;;;;;;;;;;;;;5.17;41.08;102832.47;5063530;28;20040;-63
2022/04/16 11:04:56;;;;;;;5.38;1.60;;;;;;;5.20;41.05;102827.03;5055954;28;20005;-65
2022/04/16 11:07:23;;;;;;;2.97;1.20;;;;;;;5.19;41.13;102801.56;5051580;28;20137;-65
2022/04/16 11:09:52;;;;;;;3.33;1.30;;;;;;;5.28;40.54;102828.38;5051027;28;20358;-66
2022/04/16 11:12:19;;;;;;;2.35;1.35;;;;;;;5.19;40.91;102820.03;5051554;28;20773;-66
2022/04/16 11:14:51;;;;;;;2.50;2.00;;;;;;;5.17;41.01;102821.91;5051993;28;20122;-64
2022/04/16 11:17:21;;;;;;;2.03;1.40;;;;;;;5.18;40.50;102824.47;5050552;28;20299;-67
2022/04/16 11:19:59;;;;;;;2.90;1.30;;;;;;;5.21;40.41;102829.63;5053825;28;20302;-67
2022/04/16 11:22:26;;;;;;;2.27;1.97;;;;;;;5.22;40.45;102819.91;5052345;28;20719;-67
2022/04/16 11:24:51;;;;;;;4.30;1.40;;;;;;;5.38;40.70;102835.84;5069492;28;20311;-66
2022/04/16 11:36:02;;;;;;;4.47;1.70;;;;;;;5.72;40.02;102846.38;5071157;28;20290;-71
2022/04/16 11:38:29;;;;;;;6.68;1.40;;;;;;;5.57;40.29;102836.59;5072179;28;20338;-68
2022/04/16 11:40:57;;;;;;;3.90;1.67;;;;;;;5.41;40.90;102825.97;5070971;28;20032;-69
2022/04/16 11:43:23;;;;;;;4.70;1.70;;;;;;;5.44;40.70;102824.94;5070887;28;20301;-68
2022/04/16 11:45:50;;;;;;;3.03;1.33;;;;;;;5.52;40.21;102830.72;5070908;28;20302;-66
2022/04/16 11:48:16;;;;;;;3.47;1.57;;;;;;;5.40;40.10;102818.09;5070571;28;20282;-69
2022/04/16 11:50:43;;;;;;;3.27;1.10;;;;;;;5.51;39.94;102829.00;5070987;28;20713;-69
2022/04/16 11:53:12;;;;;;;8.73;3.90;;;;;;;5.47;40.78;102830.91;5071110;28;20036;-66
2022/04/16 11:55:48;;;;;;;2.37;1.37;;;;;;;5.52;40.13;102833.34;5070929;28;20602;-69
2022/04/16 11:58:14;;;;;;;5.87;2.17;;;;;;;5.48;40.09;102831.78;5069927;28;20316;-71